sensor_id;sensor_type;location;lat;lon;timestamp;P1;durP1;ratioP1;P2;durP2;ratioP2
21258;SDS011;10787;53.364;-1.480;2023-11-19T00:02:25;23.57;;;3.90;;
21258;SDS011;10787;53.364;-1.480;2023-11-19T00:05:10;18.60;;;3.60;;
21258;SDS011;10787;53.364;-1.480;2023-11-19T00:07:55;26.57;;;4.00;;
21258;SDS011;10787;53.364;-1.480;2023-11-19T00:10:40;21.23;;;3.70;;
21258;SDS011;10787;53.364;-1.480;2023-11-19T00:13:23;21.23;;;3.80;;
21258;SDS011;10787;53.364;-1.480;2023-11-19T00:16:09;22.73;;;4.27;;
21258;SDS011;10787;53.364;-1.480;2023-11-19T00:18:54;18.43;;;3.90;;
21258;SDS011;10787;53.364;-1.480;2023-11-19T00:21:38;17.73;;;4.07;;
21258;SDS011;10787;53.364;-1.480;2023-11-19T00:24:25;22.33;;;3.93;;
21258;SDS011;10787;53.364;-1.480;2023-11-19T00:27:08;23.17;;;4.30;;
21258;SDS011;10787;53.364;-1.480;2023-11-19T00:29:52;25.70;;;4.27;;
21258;SDS011;10787;53.364;-1.480;2023-11-19T00:32:37;19.73;;;3.90;;
21258;SDS011;10787;53.364;-1.480;2023-11-19T00:35:23;22.03;;;3.90;;
21258;SDS011;10787;53.364;-1.480;2023-11-19T00:38:07;21.90;;;4.30;;
21258;SDS011;10787;53.364;-1.480;2023-11-19T00:40:51;20.93;;;3.87;;
21258;SDS011;10787;53.364;-1.480;2023-11-19T00:43:35;22.53;;;3.93;;
21258;SDS011;10787;53.364;-1.480;2023-11-19T00:46:20;18.80;;;3.87;;
21258;SDS011;10787;53.364;-1.480;2023-11-19T00:49:04;18.60;;;4.20;;
21258;SDS011;10787;53.364;-1.480;2023-11-19T00:51:48;20.83;;;4.07;;
21258;SDS011;10787;53.364;-1.480;2023-11-19T00:54:33;23.43;;;3.80;;
21258;SDS011;10787;53.364;-1.480;2023-11-19T00:57:18;23.13;;;4.37;;
21258;SDS011;10787;53.364;-1.480;2023-11-19T01:00:02;21.60;;;4.10;;
21258;SDS011;10787;53.364;-1.480;2023-11-19T01:02:53;20.33;;;3.90;;
21258;SDS011;10787;53.364;-1.480;2023-11-19T01:05:38;19.90;;;4.23;;
21258;SDS011;10787;53.364;-1.480;2023-11-19T01:08:22;21.23;;;4.07;;
21258;SDS011;10787;53.364;-1.480;2023-11-19T01:11:08;13.50;;;3.57;;
21258;SDS011;10787;53.364;-1.480;2023-11-19T01:13:52;22.30;;;3.73;;
21258;SDS011;10787;53.364;-1.480;2023-11-19T01:16:36;19.13;;;3.83;;
21258;SDS011;10787;53.364;-1.480;2023-11-19T01:19:21;18.13;;;3.83;;
21258;SDS011;10787;53.364;-1.480;2023-11-19T01:22:06;17.03;;;3.83;;
21258;SDS011;10787;53.364;-1.480;2023-11-19T01:24:50;19.00;;;3.63;;
21258;SDS011;10787;53.364;-1.480;2023-11-19T01:27:36;22.90;;;4.17;;
21258;SDS011;10787;53.364;-1.480;2023-11-19T01:30:20;19.13;;;3.50;;
21258;SDS011;10787;53.364;-1.480;2023-11-19T01:33:04;17.80;;;3.70;;
21258;SDS011;10787;53.364;-1.480;2023-11-19T01:35:51;20.77;;;4.03;;
21258;SDS011;10787;53.364;-1.480;2023-11-19T01:38:36;17.23;;;3.43;;
21258;SDS011;10787;53.364;-1.480;2023-11-19T01:41:20;23.43;;;4.33;;
21258;SDS011;10787;53.364;-1.480;2023-11-19T01:44:05;20.43;;;3.87;;
21258;SDS011;10787;53.364;-1.480;2023-11-19T01:46:50;19.07;;;3.60;;
21258;SDS011;10787;53.364;-1.480;2023-11-19T01:49:34;19.60;;;3.93;;
21258;SDS011;10787;53.364;-1.480;2023-11-19T01:52:19;21.17;;;3.73;;
21258;SDS011;10787;53.364;-1.480;2023-11-19T01:55:04;20.40;;;4.10;;
21258;SDS011;10787;53.364;-1.480;2023-11-19T01:57:49;19.13;;;3.53;;
21258;SDS011;10787;53.364;-1.480;2023-11-19T02:00:36;22.93;;;4.03;;
21258;SDS011;10787;53.364;-1.480;2023-11-19T02:03:20;20.47;;;4.33;;
21258;SDS011;10787;53.364;-1.480;2023-11-19T02:06:06;19.77;;;3.73;;
21258;SDS011;10787;53.364;-1.480;2023-11-19T02:08:51;19.13;;;3.57;;
21258;SDS011;10787;53.364;-1.480;2023-11-19T02:11:35;20.50;;;4.03;;
21258;SDS011;10787;53.364;-1.480;2023-11-19T02:14:22;21.47;;;4.03;;
21258;SDS011;10787;53.364;-1.480;2023-11-19T02:17:24;19.40;;;4.13;;
21258;SDS011;10787;53.364;-1.480;2023-11-19T02:20:10;18.47;;;3.90;;
21258;SDS011;10787;53.364;-1.480;2023-11-19T02:22:59;21.17;;;3.90;;
21258;SDS011;10787;53.364;-1.480;2023-11-19T02:25:43;18.97;;;3.93;;
21258;SDS011;10787;53.364;-1.480;2023-11-19T02:28:36;18.23;;;3.50;;
21258;SDS011;10787;53.364;-1.480;2023-11-19T02:31:20;16.30;;;3.60;;
21258;SDS011;10787;53.364;-1.480;2023-11-19T02:34:06;21.10;;;3.97;;
21258;SDS011;10787;53.364;-1.480;2023-11-19T02:36:50;16.77;;;3.30;;
21258;SDS011;10787;53.364;-1.480;2023-11-19T02:39:35;21.00;;;4.07;;
21258;SDS011;10787;53.364;-1.480;2023-11-19T02:42:20;19.47;;;3.50;;
21258;SDS011;10787;53.364;-1.480;2023-11-19T02:45:05;17.07;;;3.40;;
21258;SDS011;10787;53.364;-1.480;2023-11-19T02:47:51;20.03;;;3.73;;
21258;SDS011;10787;53.364;-1.480;2023-11-19T02:50:36;16.63;;;3.73;;
21258;SDS011;10787;53.364;-1.480;2023-11-19T02:53:20;17.43;;;3.50;;
21258;SDS011;10787;53.364;-1.480;2023-11-19T02:56:06;17.00;;;3.30;;
21258;SDS011;10787;53.364;-1.480;2023-11-19T02:58:58;16.33;;;2.90;;
21258;SDS011;10787;53.364;-1.480;2023-11-19T03:01:43;16.10;;;3.10;;
21258;SDS011;10787;53.364;-1.480;2023-11-19T03:04:33;18.23;;;3.40;;
21258;SDS011;10787;53.364;-1.480;2023-11-19T03:07:18;15.80;;;3.23;;
21258;SDS011;10787;53.364;-1.480;2023-11-19T03:10:02;14.17;;;3.30;;
21258;SDS011;10787;53.364;-1.480;2023-11-19T03:12:49;14.10;;;2.90;;
21258;SDS011;10787;53.364;-1.480;2023-11-19T03:15:34;15.60;;;3.10;;
21258;SDS011;10787;53.364;-1.480;2023-11-19T03:18:18;16.53;;;3.50;;
21258;SDS011;10787;53.364;-1.480;2023-11-19T03:21:02;18.27;;;3.50;;
21258;SDS011;10787;53.364;-1.480;2023-11-19T03:23:46;18.70;;;3.47;;
21258;SDS011;10787;53.364;-1.480;2023-11-19T03:26:31;15.87;;;3.40;;
21258;SDS011;10787;53.364;-1.480;2023-11-19T03:29:17;21.47;;;3.30;;
21258;SDS011;10787;53.364;-1.480;2023-11-19T03:32:01;20.37;;;3.93;;
21258;SDS011;10787;53.364;-1.480;2023-11-19T03:34:46;18.20;;;3.40;;
21258;SDS011;10787;53.364;-1.480;2023-11-19T03:37:30;20.10;;;4.07;;
21258;SDS011;10787;53.364;-1.480;2023-11-19T03:40:16;20.13;;;3.43;;
21258;SDS011;10787;53.364;-1.480;2023-11-19T03:43:00;15.73;;;3.40;;
21258;SDS011;10787;53.364;-1.480;2023-11-19T03:45:44;21.60;;;4.40;;
21258;SDS011;10787;53.364;-1.480;2023-11-19T03:48:30;22.50;;;3.87;;
21258;SDS011;10787;53.364;-1.480;2023-11-19T03:51:14;18.00;;;3.60;;
21258;SDS011;10787;53.364;-1.480;2023-11-19T03:53:59;19.97;;;3.33;;
21258;SDS011;10787;53.364;-1.480;2023-11-19T03:56:44;15.63;;;3.37;;
21258;SDS011;10787;53.364;-1.480;2023-11-19T03:59:28;14.97;;;3.23;;
21258;SDS011;10787;53.364;-1.480;2023-11-19T04:02:12;18.20;;;3.43;;
21258;SDS011;10787;53.364;-1.480;2023-11-19T04:04:56;21.03;;;3.83;;
21258;SDS011;10787;53.364;-1.480;2023-11-19T04:07:40;18.67;;;3.40;;
21258;SDS011;10787;53.364;-1.480;2023-11-19T04:10:24;19.90;;;3.93;;
21258;SDS011;10787;53.364;-1.480;2023-11-19T04:13:10;16.73;;;3.20;;
21258;SDS011;10787;53.364;-1.480;2023-11-19T04:15:54;15.90;;;3.10;;
21258;SDS011;10787;53.364;-1.480;2023-11-19T04:18:38;16.23;;;2.97;;
21258;SDS011;10787;53.364;-1.480;2023-11-19T04:21:22;14.73;;;2.90;;
21258;SDS011;10787;53.364;-1.480;2023-11-19T04:24:07;16.43;;;2.93;;
21258;SDS011;10787;53.364;-1.480;2023-11-19T04:26:52;14.67;;;3.33;;
21258;SDS011;10787;53.364;-1.480;2023-11-19T04:29:36;15.90;;;3.20;;
21258;SDS011;10787;53.364;-1.480;2023-11-19T04:32:20;20.20;;;3.33;;
21258;SDS011;10787;53.364;-1.480;2023-11-19T04:35:04;14.37;;;2.90;;
21258;SDS011;10787;53.364;-1.480;2023-11-19T04:37:50;15.93;;;3.00;;
21258;SDS011;10787;53.364;-1.480;2023-11-19T04:40:34;13.47;;;2.80;;
21258;SDS011;10787;53.364;-1.480;2023-11-19T04:43:18;17.70;;;2.90;;
21258;SDS011;10787;53.364;-1.480;2023-11-19T04:46:04;20.23;;;3.30;;
21258;SDS011;10787;53.364;-1.480;2023-11-19T04:48:49;18.57;;;3.07;;
21258;SDS011;10787;53.364;-1.480;2023-11-19T04:51:37;11.97;;;2.93;;
21258;SDS011;10787;53.364;-1.480;2023-11-19T04:54:22;18.73;;;3.10;;
21258;SDS011;10787;53.364;-1.480;2023-11-19T04:57:06;15.93;;;3.20;;
21258;SDS011;10787;53.364;-1.480;2023-11-19T04:59:53;19.17;;;3.03;;
21258;SDS011;10787;53.364;-1.480;2023-11-19T05:02:37;13.20;;;2.90;;
21258;SDS011;10787;53.364;-1.480;2023-11-19T05:05:21;24.90;;;3.90;;
21258;SDS011;10787;53.364;-1.480;2023-11-19T05:08:05;15.30;;;3.00;;
21258;SDS011;10787;53.364;-1.480;2023-11-19T05:10:50;15.57;;;2.60;;
21258;SDS011;10787;53.364;-1.480;2023-11-19T05:13:34;13.53;;;2.43;;
21258;SDS011;10787;53.364;-1.480;2023-11-19T05:16:18;13.80;;;2.50;;
21258;SDS011;10787;53.364;-1.480;2023-11-19T05:19:02;7.47;;;1.90;;
21258;SDS011;10787;53.364;-1.480;2023-11-19T05:21:47;8.00;;;1.63;;
21258;SDS011;10787;53.364;-1.480;2023-11-19T05:24:34;9.87;;;1.97;;
21258;SDS011;10787;53.364;-1.480;2023-11-19T05:27:19;8.60;;;1.67;;
21258;SDS011;10787;53.364;-1.480;2023-11-19T05:30:04;9.53;;;1.90;;
21258;SDS011;10787;53.364;-1.480;2023-11-19T05:32:52;13.30;;;2.00;;
21258;SDS011;10787;53.364;-1.480;2023-11-19T05:35:36;9.67;;;1.93;;
21258;SDS011;10787;53.364;-1.480;2023-11-19T05:38:21;9.70;;;2.30;;
21258;SDS011;10787;53.364;-1.480;2023-11-19T05:41:05;10.07;;;2.17;;
21258;SDS011;10787;53.364;-1.480;2023-11-19T05:43:49;15.60;;;2.77;;
21258;SDS011;10787;53.364;-1.480;2023-11-19T05:46:34;10.87;;;2.40;;
21258;SDS011;10787;53.364;-1.480;2023-11-19T05:49:24;14.73;;;2.80;;
21258;SDS011;10787;53.364;-1.480;2023-11-19T05:52:08;12.80;;;2.57;;
21258;SDS011;10787;53.364;-1.480;2023-11-19T05:54:53;14.37;;;2.60;;
21258;SDS011;10787;53.364;-1.480;2023-11-19T05:57:37;11.53;;;2.63;;
21258;SDS011;10787;53.364;-1.480;2023-11-19T06:00:22;11.33;;;2.37;;
21258;SDS011;10787;53.364;-1.480;2023-11-19T06:03:09;14.10;;;2.80;;
21258;SDS011;10787;53.364;-1.480;2023-11-19T06:05:53;12.67;;;2.70;;
21258;SDS011;10787;53.364;-1.480;2023-11-19T06:08:38;15.13;;;3.10;;
21258;SDS011;10787;53.364;-1.480;2023-11-19T06:11:23;14.67;;;3.13;;
21258;SDS011;10787;53.364;-1.480;2023-11-19T06:14:10;18.73;;;3.07;;
21258;SDS011;10787;53.364;-1.480;2023-11-19T06:16:54;13.40;;;2.80;;
21258;SDS011;10787;53.364;-1.480;2023-11-19T06:19:38;12.47;;;2.53;;
21258;SDS011;10787;53.364;-1.480;2023-11-19T06:22:22;15.50;;;2.83;;
21258;SDS011;10787;53.364;-1.480;2023-11-19T06:25:06;15.03;;;3.00;;
21258;SDS011;10787;53.364;-1.480;2023-11-19T06:27:51;14.97;;;3.00;;
21258;SDS011;10787;53.364;-1.480;2023-11-19T06:30:36;15.27;;;3.10;;
21258;SDS011;10787;53.364;-1.480;2023-11-19T06:33:21;13.47;;;3.07;;
21258;SDS011;10787;53.364;-1.480;2023-11-19T06:36:05;14.43;;;3.03;;
21258;SDS011;10787;53.364;-1.480;2023-11-19T06:38:51;10.03;;;2.37;;
21258;SDS011;10787;53.364;-1.480;2023-11-19T06:41:35;15.43;;;2.60;;
21258;SDS011;10787;53.364;-1.480;2023-11-19T06:44:22;11.07;;;2.37;;
21258;SDS011;10787;53.364;-1.480;2023-11-19T06:47:05;13.40;;;2.40;;
21258;SDS011;10787;53.364;-1.480;2023-11-19T06:49:50;11.93;;;2.57;;
21258;SDS011;10787;53.364;-1.480;2023-11-19T06:52:34;9.80;;;2.40;;
21258;SDS011;10787;53.364;-1.480;2023-11-19T06:55:20;10.47;;;2.10;;
21258;SDS011;10787;53.364;-1.480;2023-11-19T06:58:05;14.03;;;2.20;;
21258;SDS011;10787;53.364;-1.480;2023-11-19T07:00:50;8.70;;;2.23;;
21258;SDS011;10787;53.364;-1.480;2023-11-19T07:03:35;9.10;;;2.23;;
21258;SDS011;10787;53.364;-1.480;2023-11-19T07:06:19;13.13;;;2.20;;
21258;SDS011;10787;53.364;-1.480;2023-11-19T07:09:04;11.63;;;2.00;;
21258;SDS011;10787;53.364;-1.480;2023-11-19T07:11:53;11.00;;;2.40;;
21258;SDS011;10787;53.364;-1.480;2023-11-19T07:14:37;10.97;;;2.63;;
21258;SDS011;10787;53.364;-1.480;2023-11-19T07:17:22;11.60;;;2.37;;
21258;SDS011;10787;53.364;-1.480;2023-11-19T07:20:07;11.00;;;2.50;;
21258;SDS011;10787;53.364;-1.480;2023-11-19T07:22:53;12.77;;;2.93;;
21258;SDS011;10787;53.364;-1.480;2023-11-19T07:25:38;11.23;;;2.30;;
21258;SDS011;10787;53.364;-1.480;2023-11-19T07:28:22;14.87;;;3.03;;
21258;SDS011;10787;53.364;-1.480;2023-11-19T07:31:06;12.40;;;2.80;;
21258;SDS011;10787;53.364;-1.480;2023-11-19T07:33:54;14.87;;;2.53;;
21258;SDS011;10787;53.364;-1.480;2023-11-19T07:36:38;16.83;;;2.80;;
21258;SDS011;10787;53.364;-1.480;2023-11-19T07:39:23;16.77;;;2.77;;
21258;SDS011;10787;53.364;-1.480;2023-11-19T07:42:07;16.20;;;2.70;;
21258;SDS011;10787;53.364;-1.480;2023-11-19T07:44:52;16.50;;;2.80;;
21258;SDS011;10787;53.364;-1.480;2023-11-19T07:47:39;14.63;;;2.73;;
21258;SDS011;10787;53.364;-1.480;2023-11-19T07:50:23;14.07;;;2.90;;
21258;SDS011;10787;53.364;-1.480;2023-11-19T07:53:08;12.77;;;2.70;;
21258;SDS011;10787;53.364;-1.480;2023-11-19T07:55:52;10.93;;;2.40;;
21258;SDS011;10787;53.364;-1.480;2023-11-19T07:58:37;12.13;;;2.40;;
21258;SDS011;10787;53.364;-1.480;2023-11-19T08:01:21;15.83;;;2.60;;
21258;SDS011;10787;53.364;-1.480;2023-11-19T08:04:07;12.10;;;2.10;;
21258;SDS011;10787;53.364;-1.480;2023-11-19T08:06:51;13.47;;;2.40;;
21258;SDS011;10787;53.364;-1.480;2023-11-19T08:09:35;12.73;;;2.43;;
21258;SDS011;10787;53.364;-1.480;2023-11-19T08:12:20;10.93;;;2.00;;
21258;SDS011;10787;53.364;-1.480;2023-11-19T08:15:05;13.97;;;2.60;;
21258;SDS011;10787;53.364;-1.480;2023-11-19T08:17:51;13.93;;;2.43;;
21258;SDS011;10787;53.364;-1.480;2023-11-19T08:20:35;13.70;;;2.60;;
21258;SDS011;10787;53.364;-1.480;2023-11-19T08:23:20;13.73;;;2.87;;
21258;SDS011;10787;53.364;-1.480;2023-11-19T08:26:05;14.07;;;3.03;;
21258;SDS011;10787;53.364;-1.480;2023-11-19T08:28:49;11.90;;;2.40;;
21258;SDS011;10787;53.364;-1.480;2023-11-19T08:31:35;11.80;;;2.50;;
21258;SDS011;10787;53.364;-1.480;2023-11-19T08:34:20;11.80;;;2.87;;
21258;SDS011;10787;53.364;-1.480;2023-11-19T08:37:10;12.97;;;2.60;;
21258;SDS011;10787;53.364;-1.480;2023-11-19T08:40:03;11.17;;;2.50;;
21258;SDS011;10787;53.364;-1.480;2023-11-19T08:42:48;14.53;;;3.00;;
21258;SDS011;10787;53.364;-1.480;2023-11-19T08:45:32;12.00;;;2.40;;
21258;SDS011;10787;53.364;-1.480;2023-11-19T08:48:16;15.13;;;2.33;;
21258;SDS011;10787;53.364;-1.480;2023-11-19T08:51:00;14.00;;;2.43;;
21258;SDS011;10787;53.364;-1.480;2023-11-19T08:53:44;11.97;;;2.60;;
21258;SDS011;10787;53.364;-1.480;2023-11-19T08:56:28;12.00;;;2.50;;
21258;SDS011;10787;53.364;-1.480;2023-11-19T08:59:16;14.57;;;2.90;;
21258;SDS011;10787;53.364;-1.480;2023-11-19T09:02:01;17.27;;;2.70;;
21258;SDS011;10787;53.364;-1.480;2023-11-19T09:04:45;12.30;;;3.07;;
21258;SDS011;10787;53.364;-1.480;2023-11-19T09:07:29;14.43;;;3.00;;
21258;SDS011;10787;53.364;-1.480;2023-11-19T09:10:15;14.27;;;2.90;;
21258;SDS011;10787;53.364;-1.480;2023-11-19T09:12:59;15.00;;;2.90;;
21258;SDS011;10787;53.364;-1.480;2023-11-19T09:15:43;15.70;;;2.93;;
21258;SDS011;10787;53.364;-1.480;2023-11-19T09:18:27;11.93;;;2.50;;
21258;SDS011;10787;53.364;-1.480;2023-11-19T09:21:11;14.33;;;2.60;;
21258;SDS011;10787;53.364;-1.480;2023-11-19T09:23:56;12.37;;;2.70;;
21258;SDS011;10787;53.364;-1.480;2023-11-19T09:26:41;16.27;;;2.70;;
21258;SDS011;10787;53.364;-1.480;2023-11-19T09:29:25;11.97;;;2.43;;
21258;SDS011;10787;53.364;-1.480;2023-11-19T09:32:09;14.57;;;2.57;;
21258;SDS011;10787;53.364;-1.480;2023-11-19T09:34:54;11.60;;;2.30;;
21258;SDS011;10787;53.364;-1.480;2023-11-19T09:37:38;12.50;;;2.30;;
21258;SDS011;10787;53.364;-1.480;2023-11-19T09:40:23;11.37;;;2.57;;
21258;SDS011;10787;53.364;-1.480;2023-11-19T09:43:07;11.80;;;2.67;;
21258;SDS011;10787;53.364;-1.480;2023-11-19T09:45:51;9.50;;;2.07;;
21258;SDS011;10787;53.364;-1.480;2023-11-19T09:48:37;10.87;;;2.27;;
21258;SDS011;10787;53.364;-1.480;2023-11-19T09:51:23;10.50;;;2.50;;
21258;SDS011;10787;53.364;-1.480;2023-11-19T09:54:08;9.13;;;2.63;;
21258;SDS011;10787;53.364;-1.480;2023-11-19T09:56:53;9.83;;;2.47;;
21258;SDS011;10787;53.364;-1.480;2023-11-19T09:59:42;11.53;;;2.10;;
21258;SDS011;10787;53.364;-1.480;2023-11-19T10:02:29;10.27;;;2.20;;
21258;SDS011;10787;53.364;-1.480;2023-11-19T10:05:16;9.77;;;2.10;;
21258;SDS011;10787;53.364;-1.480;2023-11-19T10:08:05;10.80;;;1.90;;
21258;SDS011;10787;53.364;-1.480;2023-11-19T10:10:50;11.33;;;2.10;;
21258;SDS011;10787;53.364;-1.480;2023-11-19T10:13:35;8.00;;;1.80;;
21258;SDS011;10787;53.364;-1.480;2023-11-19T10:16:27;7.60;;;1.67;;
21258;SDS011;10787;53.364;-1.480;2023-11-19T10:19:20;10.07;;;2.20;;
21258;SDS011;10787;53.364;-1.480;2023-11-19T10:22:04;15.33;;;2.10;;
21258;SDS011;10787;53.364;-1.480;2023-11-19T10:24:49;7.93;;;1.93;;
21258;SDS011;10787;53.364;-1.480;2023-11-19T10:27:34;7.30;;;1.93;;
21258;SDS011;10787;53.364;-1.480;2023-11-19T10:30:27;7.43;;;1.80;;
21258;SDS011;10787;53.364;-1.480;2023-11-19T10:33:13;7.40;;;1.83;;
21258;SDS011;10787;53.364;-1.480;2023-11-19T10:36:04;9.80;;;2.17;;
21258;SDS011;10787;53.364;-1.480;2023-11-19T10:38:52;8.87;;;2.10;;
21258;SDS011;10787;53.364;-1.480;2023-11-19T10:41:38;6.27;;;1.80;;
21258;SDS011;10787;53.364;-1.480;2023-11-19T10:44:32;8.67;;;2.30;;
21258;SDS011;10787;53.364;-1.480;2023-11-19T10:47:19;6.50;;;2.00;;
21258;SDS011;10787;53.364;-1.480;2023-11-19T10:50:06;7.50;;;1.90;;
21258;SDS011;10787;53.364;-1.480;2023-11-19T10:52:52;10.07;;;1.90;;
21258;SDS011;10787;53.364;-1.480;2023-11-19T10:55:40;11.03;;;2.00;;
21258;SDS011;10787;53.364;-1.480;2023-11-19T10:58:24;7.63;;;2.27;;
21258;SDS011;10787;53.364;-1.480;2023-11-19T11:01:13;6.27;;;1.80;;
21258;SDS011;10787;53.364;-1.480;2023-11-19T11:04:02;8.63;;;1.90;;
21258;SDS011;10787;53.364;-1.480;2023-11-19T11:06:48;9.53;;;1.80;;
21258;SDS011;10787;53.364;-1.480;2023-11-19T11:09:33;7.90;;;2.87;;
21258;SDS011;10787;53.364;-1.480;2023-11-19T11:12:18;7.63;;;1.70;;
21258;SDS011;10787;53.364;-1.480;2023-11-19T11:15:07;10.03;;;2.47;;
21258;SDS011;10787;53.364;-1.480;2023-11-19T11:17:54;9.80;;;2.27;;
21258;SDS011;10787;53.364;-1.480;2023-11-19T11:20:45;7.73;;;3.50;;
21258;SDS011;10787;53.364;-1.480;2023-11-19T11:32:54;6.57;;;1.97;;
21258;SDS011;10787;53.364;-1.480;2023-11-19T11:39:03;4.23;;;1.30;;
21258;SDS011;10787;53.364;-1.480;2023-11-19T11:45:07;5.53;;;1.47;;
21258;SDS011;10787;53.364;-1.480;2023-11-19T11:50:50;5.70;;;1.63;;
21258;SDS011;10787;53.364;-1.480;2023-11-19T11:53:39;5.67;;;2.37;;
21258;SDS011;10787;53.364;-1.480;2023-11-19T11:56:32;4.23;;;1.40;;
21258;SDS011;10787;53.364;-1.480;2023-11-19T11:59:20;5.63;;;1.70;;
21258;SDS011;10787;53.364;-1.480;2023-11-19T12:02:10;5.43;;;1.93;;
21258;SDS011;10787;53.364;-1.480;2023-11-19T12:04:56;35.87;;;3.17;;
21258;SDS011;10787;53.364;-1.480;2023-11-19T12:07:40;7.10;;;2.30;;
21258;SDS011;10787;53.364;-1.480;2023-11-19T12:10:24;4.93;;;1.50;;
21258;SDS011;10787;53.364;-1.480;2023-11-19T12:13:09;4.97;;;1.50;;
21258;SDS011;10787;53.364;-1.480;2023-11-19T12:18:40;3.60;;;1.27;;
21258;SDS011;10787;53.364;-1.480;2023-11-19T12:21:29;5.80;;;1.70;;
21258;SDS011;10787;53.364;-1.480;2023-11-19T12:24:14;6.77;;;1.90;;
21258;SDS011;10787;53.364;-1.480;2023-11-19T12:26:59;5.30;;;1.33;;
21258;SDS011;10787;53.364;-1.480;2023-11-19T12:29:44;6.20;;;2.20;;
21258;SDS011;10787;53.364;-1.480;2023-11-19T12:32:36;5.10;;;2.30;;
21258;SDS011;10787;53.364;-1.480;2023-11-19T12:35:29;3.57;;;1.60;;
21258;SDS011;10787;53.364;-1.480;2023-11-19T12:38:20;4.50;;;2.10;;
21258;SDS011;10787;53.364;-1.480;2023-11-19T12:41:05;5.37;;;2.33;;
21258;SDS011;10787;53.364;-1.480;2023-11-19T12:43:51;4.50;;;1.90;;
21258;SDS011;10787;53.364;-1.480;2023-11-19T12:46:35;10.67;;;6.03;;
21258;SDS011;10787;53.364;-1.480;2023-11-19T12:49:20;7.13;;;2.90;;
21258;SDS011;10787;53.364;-1.480;2023-11-19T12:52:13;4.13;;;2.83;;
21258;SDS011;10787;53.364;-1.480;2023-11-19T12:54:57;3.60;;;1.40;;
21258;SDS011;10787;53.364;-1.480;2023-11-19T12:57:43;3.77;;;1.60;;
21258;SDS011;10787;53.364;-1.480;2023-11-19T13:00:27;3.17;;;1.17;;
21258;SDS011;10787;53.364;-1.480;2023-11-19T13:03:11;1.70;;;0.90;;
21258;SDS011;10787;53.364;-1.480;2023-11-19T13:06:01;3.37;;;1.67;;
21258;SDS011;10787;53.364;-1.480;2023-11-19T13:08:48;2.77;;;1.60;;
21258;SDS011;10787;53.364;-1.480;2023-11-19T13:11:36;3.10;;;1.83;;
21258;SDS011;10787;53.364;-1.480;2023-11-19T13:14:22;1.30;;;0.80;;
21258;SDS011;10787;53.364;-1.480;2023-11-19T13:17:07;1.27;;;0.87;;
21258;SDS011;10787;53.364;-1.480;2023-11-19T13:19:52;1.63;;;0.97;;
21258;SDS011;10787;53.364;-1.480;2023-11-19T13:22:36;3.57;;;1.50;;
21258;SDS011;10787;53.364;-1.480;2023-11-19T13:25:20;2.43;;;1.50;;
21258;SDS011;10787;53.364;-1.480;2023-11-19T13:28:04;2.83;;;1.83;;
21258;SDS011;10787;53.364;-1.480;2023-11-19T13:30:50;2.37;;;1.60;;
21258;SDS011;10787;53.364;-1.480;2023-11-19T13:33:34;2.67;;;1.60;;
21258;SDS011;10787;53.364;-1.480;2023-11-19T13:36:19;2.80;;;1.80;;
21258;SDS011;10787;53.364;-1.480;2023-11-19T13:39:04;5.07;;;2.23;;
21258;SDS011;10787;53.364;-1.480;2023-11-19T13:41:49;4.60;;;3.27;;
21258;SDS011;10787;53.364;-1.480;2023-11-19T13:44:33;3.00;;;1.90;;
21258;SDS011;10787;53.364;-1.480;2023-11-19T13:47:17;2.70;;;1.50;;
21258;SDS011;10787;53.364;-1.480;2023-11-19T13:50:02;2.47;;;1.60;;
21258;SDS011;10787;53.364;-1.480;2023-11-19T13:52:49;2.40;;;1.30;;
21258;SDS011;10787;53.364;-1.480;2023-11-19T13:55:34;2.90;;;1.00;;
21258;SDS011;10787;53.364;-1.480;2023-11-19T13:58:19;1.40;;;1.10;;
21258;SDS011;10787;53.364;-1.480;2023-11-19T14:01:04;1.60;;;1.30;;
21258;SDS011;10787;53.364;-1.480;2023-11-19T14:03:49;1.60;;;0.90;;
21258;SDS011;10787;53.364;-1.480;2023-11-19T14:06:33;2.17;;;0.90;;
21258;SDS011;10787;53.364;-1.480;2023-11-19T14:09:17;4.67;;;2.00;;
21258;SDS011;10787;53.364;-1.480;2023-11-19T14:12:01;2.40;;;1.60;;
21258;SDS011;10787;53.364;-1.480;2023-11-19T14:14:46;2.23;;;1.40;;
21258;SDS011;10787;53.364;-1.480;2023-11-19T14:17:31;3.17;;;1.87;;
21258;SDS011;10787;53.364;-1.480;2023-11-19T14:20:15;1.83;;;1.07;;
21258;SDS011;10787;53.364;-1.480;2023-11-19T14:23:01;2.03;;;1.17;;
21258;SDS011;10787;53.364;-1.480;2023-11-19T14:25:46;1.30;;;1.10;;
21258;SDS011;10787;53.364;-1.480;2023-11-19T14:28:30;2.00;;;1.33;;
21258;SDS011;10787;53.364;-1.480;2023-11-19T14:31:14;1.87;;;1.10;;
21258;SDS011;10787;53.364;-1.480;2023-11-19T14:33:59;2.60;;;1.30;;
21258;SDS011;10787;53.364;-1.480;2023-11-19T14:36:43;1.77;;;1.30;;
21258;SDS011;10787;53.364;-1.480;2023-11-19T14:39:27;1.00;;;0.83;;
21258;SDS011;10787;53.364;-1.480;2023-11-19T14:42:14;2.43;;;0.70;;
21258;SDS011;10787;53.364;-1.480;2023-11-19T14:44:59;1.43;;;0.73;;
21258;SDS011;10787;53.364;-1.480;2023-11-19T14:47:43;1.07;;;0.70;;
21258;SDS011;10787;53.364;-1.480;2023-11-19T14:50:28;1.10;;;0.77;;
21258;SDS011;10787;53.364;-1.480;2023-11-19T14:53:12;1.10;;;0.63;;
21258;SDS011;10787;53.364;-1.480;2023-11-19T14:55:56;2.17;;;1.13;;
21258;SDS011;10787;53.364;-1.480;2023-11-19T14:58:41;1.10;;;1.00;;
21258;SDS011;10787;53.364;-1.480;2023-11-19T15:01:26;3.77;;;3.00;;
21258;SDS011;10787;53.364;-1.480;2023-11-19T15:04:12;2.67;;;1.57;;
21258;SDS011;10787;53.364;-1.480;2023-11-19T15:06:56;1.73;;;1.00;;
21258;SDS011;10787;53.364;-1.480;2023-11-19T15:09:41;2.10;;;1.20;;
21258;SDS011;10787;53.364;-1.480;2023-11-19T15:12:27;2.17;;;1.20;;
21258;SDS011;10787;53.364;-1.480;2023-11-19T15:15:12;2.63;;;1.13;;
21258;SDS011;10787;53.364;-1.480;2023-11-19T15:17:57;2.60;;;1.57;;
21258;SDS011;10787;53.364;-1.480;2023-11-19T15:20:43;2.30;;;1.13;;
21258;SDS011;10787;53.364;-1.480;2023-11-19T15:23:31;2.30;;;1.47;;
21258;SDS011;10787;53.364;-1.480;2023-11-19T15:26:15;3.90;;;1.50;;
21258;SDS011;10787;53.364;-1.480;2023-11-19T15:29:00;2.97;;;1.00;;
21258;SDS011;10787;53.364;-1.480;2023-11-19T15:31:44;1.27;;;0.97;;
21258;SDS011;10787;53.364;-1.480;2023-11-19T15:34:28;1.70;;;1.20;;
21258;SDS011;10787;53.364;-1.480;2023-11-19T15:37:12;3.10;;;1.80;;
21258;SDS011;10787;53.364;-1.480;2023-11-19T15:39:58;2.07;;;1.20;;
21258;SDS011;10787;53.364;-1.480;2023-11-19T15:42:42;3.00;;;1.60;;
21258;SDS011;10787;53.364;-1.480;2023-11-19T15:45:29;1.37;;;0.90;;
21258;SDS011;10787;53.364;-1.480;2023-11-19T15:48:13;2.00;;;1.07;;
21258;SDS011;10787;53.364;-1.480;2023-11-19T15:50:57;3.00;;;1.83;;
21258;SDS011;10787;53.364;-1.480;2023-11-19T15:53:41;5.30;;;3.07;;
21258;SDS011;10787;53.364;-1.480;2023-11-19T15:56:26;5.27;;;3.20;;
21258;SDS011;10787;53.364;-1.480;2023-11-19T15:59:10;4.00;;;2.63;;
21258;SDS011;10787;53.364;-1.480;2023-11-19T16:01:55;3.30;;;1.73;;
21258;SDS011;10787;53.364;-1.480;2023-11-19T16:04:39;2.60;;;1.90;;
21258;SDS011;10787;53.364;-1.480;2023-11-19T16:07:23;2.93;;;2.13;;
21258;SDS011;10787;53.364;-1.480;2023-11-19T16:10:07;2.13;;;1.60;;
21258;SDS011;10787;53.364;-1.480;2023-11-19T16:12:53;3.73;;;2.47;;
21258;SDS011;10787;53.364;-1.480;2023-11-19T16:15:37;2.93;;;2.43;;
21258;SDS011;10787;53.364;-1.480;2023-11-19T16:18:22;2.67;;;1.80;;
21258;SDS011;10787;53.364;-1.480;2023-11-19T16:21:06;3.00;;;2.30;;
21258;SDS011;10787;53.364;-1.480;2023-11-19T16:23:51;2.53;;;1.47;;
21258;SDS011;10787;53.364;-1.480;2023-11-19T16:26:36;3.63;;;2.50;;
21258;SDS011;10787;53.364;-1.480;2023-11-19T16:29:20;3.30;;;1.73;;
21258;SDS011;10787;53.364;-1.480;2023-11-19T16:32:04;3.00;;;2.33;;
21258;SDS011;10787;53.364;-1.480;2023-11-19T16:34:48;2.40;;;1.70;;